Time;durP1;ratioP1;P1;durP2;ratioP2;P2;SDS_P1;SDS_P2;PMS_P1;PMS_P2;Temp;Humidity;BMP_temperature;BMP_pressure;BME280_temperature;BME280_humidity;BME280_pressure;Samples;Min_cycle;Max_cycle;Signal;HPM_P1;HPM_P2
2022/04/19 00:00:35;;;;;;;6.97;3.72;;;;;;;;;;5040040;28;20083;-60
2022/04/19 00:03:02;;;;;;;8.25;4.47;;;;;;;;;;5046545;28;20040;-60
2022/04/19 00:05:29;;;;;;;11.57;4.75;;;;;;;;;;5041210;28;20618;-60
2022/04/19 00:07:55;;;;;;;11.05;4.20;;;;;;;;;;5037822;28;20041;-60
2022/04/19 00:10:21;;;;;;;6.07;4.57;;;;;;;;;;5037985;28;20536;-61
2022/04/19 00:12:47;;;;;;;8.95;4.72;;;;;;;;;;5036902;28;20034;-61
2022/04/19 00:15:15;;;;;;;7.32;4.32;;;;;;;;;;5042598;28;20047;-61
2022/04/19 00:17:41;;;;;;;11.10;4.20;;;;;;;;;;5043190;28;20474;-60
2022/04/19 00:20:07;;;;;;;8.88;4.50;;;;;;;;;;5036735;28;20036;-60
2022/04/19 00:22:33;;;;;;;7.78;4.45;;;;;;;;;;5043427;28;20040;-60
2022/04/19 00:24:59;;;;;;;7.55;5.53;;;;;;;;;;5040463;28;20033;-61
2022/04/19 00:27:25;;;;;;;5.95;4.32;;;;;;;;;;5046187;28;20029;-61
2022/04/19 00:29:53;;;;;;;8.30;4.25;;;;;;;;;;5034797;28;20032;-61
2022/04/19 00:32:20;;;;;;;14.93;5.28;;;;;;;;;;5042857;28;20041;-60
2022/04/19 00:34:46;;;;;;;10.77;5.25;;;;;;;;;;5039438;28;20040;-59
2022/04/19 00:37:13;;;;;;;9.02;4.88;;;;;;;;;;5038174;28;20437;-60
2022/04/19 00:39:39;;;;;;;9.60;5.63;;;;;;;;;;5042282;28;20103;-61
2022/04/19 00:42:07;;;;;;;12.93;6.15;;;;;;;;;;5038335;28;20021;-60
2022/04/19 00:44:39;;;;;;;9.32;5.45;;;;;;;;;;5037347;28;20025;-60
2022/04/19 00:47:09;;;;;;;8.93;5.00;;;;;;;;;;5037895;28;20052;-60
2022/04/19 00:49:37;;;;;;;9.32;5.75;;;;;;;;;;5037907;28;20492;-61
2022/04/19 00:52:04;;;;;;;9.23;6.20;;;;;;;;;;5040331;28;20025;-60
2022/04/19 00:54:30;;;;;;;6.03;5.15;;;;;;;;;;5036623;28;20057;-61
2022/04/19 00:56:57;;;;;;;12.48;6.07;;;;;;;;;;5036843;28;20094;-60
2022/04/19 00:59:24;;;;;;;13.55;6.38;;;;;;;;;;5038528;28;20436;-61
2022/04/19 01:01:50;;;;;;;7.95;5.55;;;;;;;;;;5038412;28;20107;-60
2022/04/19 01:04:17;;;;;;;13.95;6.57;;;;;;;;;;5036690;28;20460;-61
2022/04/19 01:06:43;;;;;;;10.23;6.32;;;;;;;;;;5043985;28;20030;-60
2022/04/19 01:09:08;;;;;;;14.50;6.68;;;;;;;;;;5044137;28;20382;-60
2022/04/19 01:14:20;;;;;;;11.68;6.60;;;;;;;;;;5038724;28;20037;-61
2022/04/19 01:16:46;;;;;;;13.70;6.50;;;;;;;;;;5036581;28;20112;-53
2022/04/19 01:19:16;;;;;;;11.23;6.50;;;;;;;;;;5034299;28;20121;-61
2022/04/19 01:21:49;;;;;;;16.17;6.35;;;;;;;;;;5040848;28;20047;-60
2022/04/19 01:24:16;;;;;;;10.13;6.35;;;;;;;;;;5043436;28;20520;-60
2022/04/19 01:26:42;;;;;;;11.05;6.03;;;;;;;;;;5037210;28;20029;-61
2022/04/19 01:29:09;;;;;;;12.48;7.15;;;;;;;;;;5041129;28;20056;-61
2022/04/19 01:31:37;;;;;;;10.25;6.22;;;;;;;;;;5042086;28;20037;-60
2022/04/19 01:34:03;;;;;;;13.02;7.05;;;;;;;;;;5035466;28;20029;-60
2022/04/19 01:36:29;;;;;;;10.23;6.53;;;;;;;;;;5034122;28;20032;-61
2022/04/19 01:38:55;;;;;;;13.07;7.30;;;;;;;;;;5040104;28;20042;-60
2022/04/19 01:41:21;;;;;;;13.55;7.40;;;;;;;;;;5039449;28;20374;-60
2022/04/19 01:43:46;;;;;;;13.38;6.53;;;;;;;;;;5039140;28;20040;-61
2022/04/19 01:46:14;;;;;;;10.95;6.40;;;;;;;;;;5040253;28;20113;-60
2022/04/19 01:48:40;;;;;;;11.68;6.78;;;;;;;;;;5037449;28;20044;-61
2022/04/19 01:51:06;;;;;;;10.95;7.43;;;;;;;;;;5038998;28;20037;-61
2022/04/19 01:53:32;;;;;;;10.75;6.63;;;;;;;;;;5036975;28;20041;-60
2022/04/19 01:55:58;;;;;;;15.15;7.10;;;;;;;;;;5035944;28;20417;-60
2022/04/19 01:58:23;;;;;;;10.07;6.63;;;;;;;;;;5036771;28;20037;-61
2022/04/19 02:00:49;;;;;;;11.20;6.57;;;;;;;;;;5040829;28;20104;-60
2022/04/19 02:03:15;;;;;;;10.75;6.30;;;;;;;;;;5036623;28;20025;-61
2022/04/19 02:05:40;;;;;;;16.10;6.55;;;;;;;;;;5044910;28;20534;-60
2022/04/19 02:08:06;;;;;;;12.40;6.60;;;;;;;;;;5037488;28;20031;-60
2022/04/19 02:10:32;;;;;;;13.80;6.65;;;;;;;;;;5040083;28;20355;-60
2022/04/19 02:12:58;;;;;;;14.38;6.93;;;;;;;;;;5037881;28;20099;-60
2022/04/19 02:15:23;;;;;;;12.70;7.13;;;;;;;;;;5039246;28;20486;-60
2022/04/19 02:17:50;;;;;;;14.10;6.47;;;;;;;;;;5039537;28;20715;-60
2022/04/19 02:20:17;;;;;;;11.82;6.85;;;;;;;;;;5036250;28;20565;-61
2022/04/19 02:22:44;;;;;;;14.35;7.68;;;;;;;;;;5036636;28;20478;-60
2022/04/19 02:25:14;;;;;;;11.73;6.68;;;;;;;;;;5040874;28;20132;-60
2022/04/19 02:27:40;;;;;;;11.75;6.78;;;;;;;;;;5038747;28;20036;-61
2022/04/19 02:30:13;;;;;;;10.77;6.57;;;;;;;;;;5043017;28;20477;-60
2022/04/19 02:32:40;;;;;;;15.52;7.18;;;;;;;;;;5041842;28;20056;-60
2022/04/19 02:35:06;;;;;;;7.03;6.32;;;;;;;;;;5038699;28;20036;-61
2022/04/19 02:37:32;;;;;;;11.70;6.35;;;;;;;;;;5036228;28;20079;-61
2022/04/19 02:39:58;;;;;;;13.55;6.65;;;;;;;;;;5038751;28;20041;-60
2022/04/19 02:42:24;;;;;;;11.27;6.75;;;;;;;;;;5038140;28;20022;-61
2022/04/19 02:44:50;;;;;;;12.55;7.13;;;;;;;;;;5040221;28;20047;-60
2022/04/19 02:47:17;;;;;;;13.30;6.30;;;;;;;;;;5035597;28;20083;-61
2022/04/19 02:49:45;;;;;;;13.00;6.50;;;;;;;;;;5040346;28;20044;-60
2022/04/19 02:52:11;;;;;;;12.00;6.70;;;;;;;;;;5036941;28;20129;-60
2022/04/19 02:54:37;;;;;;;14.25;6.88;;;;;;;;;;5040537;28;20712;-60
2022/04/19 02:57:04;;;;;;;12.43;6.88;;;;;;;;;;5040371;28;20033;-60
2022/04/19 02:59:30;;;;;;;10.15;7.05;;;;;;;;;;5080055;28;20563;-60
2022/04/19 03:01:55;;;;;;;12.45;6.72;;;;;;;;;;5039239;28;20036;-61
2022/04/19 03:04:21;;;;;;;10.48;6.47;;;;;;;;;;5037532;28;20167;-61
2022/04/19 03:06:48;;;;;;;13.93;7.05;;;;;;;;;;5044744;28;20075;-60
2022/04/19 03:09:13;;;;;;;15.48;6.85;;;;;;;;;;5043489;28;20026;-61
2022/04/19 03:11:39;;;;;;;10.05;7.50;;;;;;;;;;5040382;28;20117;-61
2022/04/19 03:14:06;;;;;;;13.60;7.05;;;;;;;;;;5041729;28;20025;-60
2022/04/19 03:16:33;;;;;;;10.32;7.07;;;;;;;;;;5043710;28;20037;-60
2022/04/19 03:18:59;;;;;;;11.77;7.18;;;;;;;;;;5045671;28;20103;-60
2022/04/19 03:21:24;;;;;;;12.50;6.93;;;;;;;;;;5039017;28;21436;-60
2022/04/19 03:29:20;;;;;;;14.57;7.10;;;;;;;;;;5039427;28;20025;-60
2022/04/19 03:31:46;;;;;;;17.20;7.40;;;;;;;;;;5037842;28;20037;-61
2022/04/19 03:34:11;;;;;;;15.13;7.55;;;;;;;;;;5037981;28;20052;-60
2022/04/19 03:36:37;;;;;;;13.77;7.20;;;;;;;;;;5039366;28;20029;-60
2022/04/19 03:39:03;;;;;;;11.05;6.25;;;;;;;;;;5045102;28;20035;-60
2022/04/19 03:41:29;;;;;;;12.38;7.75;;;;;;;;;;5038322;28;20485;-61
2022/04/19 03:43:55;;;;;;;14.75;7.30;;;;;;;;;;5039737;28;20033;-60
2022/04/19 03:46:20;;;;;;;14.65;6.80;;;;;;;;;;5036098;28;20036;-60
2022/04/19 03:48:47;;;;;;;12.43;6.93;;;;;;;;;;5041086;28;20107;-60
2022/04/19 03:51:12;;;;;;;14.43;7.10;;;;;;;;;;5039266;28;20037;-60
2022/04/19 03:53:38;;;;;;;17.25;7.55;;;;;;;;;;5043270;28;20090;-60
2022/04/19 03:56:04;;;;;;;13.05;6.95;;;;;;;;;;5039520;28;20428;-61
2022/04/19 03:58:32;;;;;;;16.08;7.72;;;;;;;;;;5047558;28;20079;-60
2022/04/19 04:01:00;;;;;;;14.02;7.25;;;;;;;;;;5038321;28;20490;-60
2022/04/19 04:03:27;;;;;;;14.30;7.13;;;;;;;;;;5039968;28;20041;-60
2022/04/19 04:05:54;;;;;;;12.57;6.53;;;;;;;;;;5044876;28;20474;-60
2022/04/19 04:08:19;;;;;;;14.23;7.30;;;;;;;;;;5044985;28;20033;-60
2022/04/19 04:10:45;;;;;;;13.10;7.13;;;;;;;;;;5037376;28;20076;-60
2022/04/19 04:13:11;;;;;;;16.33;7.43;;;;;;;;;;5041575;28;20028;-60
2022/04/19 04:15:36;;;;;;;15.43;7.45;;;;;;;;;;5046750;28;20057;-61
2022/04/19 04:18:03;;;;;;;13.93;7.13;;;;;;;;;;5041038;28;20060;-60
2022/04/19 04:20:28;;;;;;;12.23;6.80;;;;;;;;;;5040446;28;20079;-60
2022/04/19 04:22:54;;;;;;;17.73;7.20;;;;;;;;;;5039132;28;20041;-61
2022/04/19 04:25:20;;;;;;;15.20;7.38;;;;;;;;;;5040026;28;20175;-60
2022/04/19 04:27:46;;;;;;;14.90;7.50;;;;;;;;;;5038438;28;20029;-60
2022/04/19 04:30:12;;;;;;;14.45;7.15;;;;;;;;;;5044603;28;20075;-61
2022/04/19 04:32:38;;;;;;;18.23;7.47;;;;;;;;;;5036156;28;20113;-60
2022/04/19 04:35:05;;;;;;;12.27;6.28;;;;;;;;;;5038195;28;20071;-60
2022/04/19 04:37:31;;;;;;;11.07;6.72;;;;;;;;;;5036979;28;20438;-60
2022/04/19 04:39:56;;;;;;;9.82;6.03;;;;;;;;;;5039713;28;20116;-60
2022/04/19 04:42:22;;;;;;;10.88;6.28;;;;;;;;;;5038738;28;20029;-60
2022/04/19 04:44:48;;;;;;;12.38;6.90;;;;;;;;;;5041619;28;20052;-60
2022/04/19 04:49:58;;;;;;;16.83;6.93;;;;;;;;;;5037722;28;20405;-60
2022/04/19 04:52:24;;;;;;;16.13;7.18;;;;;;;;;;5041486;28;20048;-61
2022/04/19 04:54:50;;;;;;;12.85;5.97;;;;;;;;;;5038713;28;20557;-61
2022/04/19 04:57:18;;;;;;;12.82;7.13;;;;;;;;;;5038861;28;20032;-60
2022/04/19 04:59:45;;;;;;;16.15;6.63;;;;;;;;;;5038268;28;20462;-61
2022/04/19 05:02:11;;;;;;;13.45;6.30;;;;;;;;;;5039173;28;20485;-60
2022/04/19 05:04:37;;;;;;;12.77;6.15;;;;;;;;;;5039318;28;20110;-60
2022/04/19 05:07:03;;;;;;;10.80;6.30;;;;;;;;;;5037785;28;20033;-60
2022/04/19 05:09:29;;;;;;;22.83;6.70;;;;;;;;;;5039328;28;20058;-61
2022/04/19 05:11:54;;;;;;;12.68;6.03;;;;;;;;;;5041902;28;20068;-60
2022/04/19 05:14:20;;;;;;;9.52;6.13;;;;;;;;;;5040334;28;20041;-60
2022/04/19 05:16:46;;;;;;;9.18;6.05;;;;;;;;;;5034444;28;20021;-60
2022/04/19 05:19:12;;;;;;;12.68;6.63;;;;;;;;;;5033335;28;20041;-60
2022/04/19 05:21:38;;;;;;;13.45;6.35;;;;;;;;;;5037763;28;20033;-61
2022/04/19 05:24:05;;;;;;;10.75;5.78;;;;;;;;;;5040532;28;20028;-60
2022/04/19 05:26:31;;;;;;;10.88;5.82;;;;;;;;;;5039154;28;20037;-60
2022/04/19 05:28:57;;;;;;;9.68;5.90;;;;;;;;;;5038088;28;20037;-60
2022/04/19 05:31:24;;;;;;;9.90;6.22;;;;;;;;;;5036166;28;20037;-60
2022/04/19 05:33:50;;;;;;;13.85;6.07;;;;;;;;;;5045790;28;20489;-60
2022/04/19 05:36:16;;;;;;;14.13;6.45;;;;;;;;;;5039490;28;20064;-61
2022/04/19 05:38:42;;;;;;;11.50;7.20;;;;;;;;;;5041658;28;20060;-60
2022/04/19 05:41:08;;;;;;;13.95;6.32;;;;;;;;;;5040115;28;20707;-61
2022/04/19 05:43:33;;;;;;;9.07;6.60;;;;;;;;;;5038492;28;20112;-60
2022/04/19 05:45:59;;;;;;;15.95;5.80;;;;;;;;;;5039811;28;20029;-60
2022/04/19 05:48:25;;;;;;;11.02;6.05;;;;;;;;;;5032843;28;20037;-60
2022/04/19 05:50:51;;;;;;;9.60;6.07;;;;;;;;;;5039560;28;20525;-61
2022/04/19 05:53:17;;;;;;;12.43;6.10;;;;;;;;;;5034425;28;20041;-61
2022/04/19 05:55:43;;;;;;;10.85;6.05;;;;;;;;;;5036175;28;20025;-61
2022/04/19 05:58:09;;;;;;;11.18;6.63;;;;;;;;;;5035058;28;20083;-61
2022/04/19 06:00:35;;;;;;;18.27;5.82;;;;;;;;;;5033738;28;20135;-61
2022/04/19 06:05:45;;;;;;;8.80;5.70;;;;;;;;;;5041254;28;20062;-60
2022/04/19 06:08:10;;;;;;;18.50;5.45;;;;;;;;;;5040897;28;20071;-60
2022/04/19 06:10:36;;;;;;;13.63;5.75;;;;;;;;;;5036562;28;20183;-60
2022/04/19 06:13:02;;;;;;;8.63;5.50;;;;;;;;;;5038803;28;20109;-60
2022/04/19 06:15:28;;;;;;;11.32;5.88;;;;;;;;;;5038463;28;20481;-59
2022/04/19 06:17:54;;;;;;;12.23;5.60;;;;;;;;;;5033442;28;20163;-61
2022/04/19 06:20:19;;;;;;;9.77;5.35;;;;;;;;;;5039702;28;20120;-61
2022/04/19 06:22:45;;;;;;;8.10;5.65;;;;;;;;;;5034467;28;20033;-61
2022/04/19 06:25:12;;;;;;;8.25;5.30;;;;;;;;;;5035133;28;20061;-61
2022/04/19 06:27:39;;;;;;;12.98;5.28;;;;;;;;;;5035626;28;20424;-60
2022/04/19 06:30:05;;;;;;;8.27;4.57;;;;;;;;;;5038496;28;20029;-61
2022/04/19 06:32:31;;;;;;;8.30;5.03;;;;;;;;;;5040762;28;20035;-61
2022/04/19 06:34:56;;;;;;;6.72;4.45;;;;;;;;;;5039123;28;20025;-60
2022/04/19 06:37:22;;;;;;;15.32;4.93;;;;;;;;;;5041094;28;20484;-61
2022/04/19 06:39:49;;;;;;;8.52;4.40;;;;;;;;;;5044299;28;20030;-61
2022/04/19 06:42:15;;;;;;;8.82;3.83;;;;;;;;;;5039191;28;20610;-61
2022/04/19 06:44:41;;;;;;;12.85;4.35;;;;;;;;;;5042134;28;20039;-61
2022/04/19 06:47:07;;;;;;;10.07;4.40;;;;;;;;;;5040007;28;20025;-61
2022/04/19 06:49:33;;;;;;;9.48;4.28;;;;;;;;;;5041646;28;20136;-61
2022/04/19 06:51:59;;;;;;;8.07;4.10;;;;;;;;;;5044381;28;20067;-61
2022/04/19 06:54:25;;;;;;;12.68;4.57;;;;;;;;;;5040369;28;20508;-61
2022/04/19 06:56:51;;;;;;;8.93;4.40;;;;;;;;;;5038214;28;20421;-61
2022/04/19 06:59:17;;;;;;;8.55;3.80;;;;;;;;;;5043518;28;20394;-62
2022/04/19 07:01:43;;;;;;;5.10;3.63;;;;;;;;;;5036977;28;20058;-61
2022/04/19 07:04:09;;;;;;;9.40;3.97;;;;;;;;;;5044561;28;20385;-61
2022/04/19 07:06:35;;;;;;;10.77;4.38;;;;;;;;;;5040365;28;20044;-61
2022/04/19 07:09:01;;;;;;;9.05;3.45;;;;;;;;;;5040182;28;20037;-61
2022/04/19 07:11:27;;;;;;;8.40;4.28;;;;;;;;;;5036878;28;20490;-60
2022/04/19 07:13:53;;;;;;;6.47;3.70;;;;;;;;;;5037739;28;20041;-61
2022/04/19 07:16:19;;;;;;;12.77;3.83;;;;;;;;;;5037751;28;20041;-61
2022/04/19 07:18:44;;;;;;;6.65;3.70;;;;;;;;;;5042440;28;20036;-61
2022/04/19 07:26:38;;;;;;;5.97;3.45;;;;;;;;;;5039653;28;20030;-61
2022/04/19 07:29:10;;;;;;;10.00;3.47;;;;;;;;;;5036033;28;20044;-61
2022/04/19 07:31:37;;;;;;;6.50;3.42;;;;;;;;;;5035145;28;20087;-61
2022/04/19 07:34:03;;;;;;;6.95;2.60;;;;;;;;;;5035603;28;20049;-61
2022/04/19 07:36:29;;;;;;;3.30;2.97;;;;;;;;;;5036684;28;21204;-61
2022/04/19 07:38:57;;;;;;;7.95;2.65;;;;;;;;;;5038536;28;20060;-61
2022/04/19 07:41:24;;;;;;;7.30;2.92;;;;;;;;;;5039796;28;20025;-61
2022/04/19 07:43:50;;;;;;;10.10;2.70;;;;;;;;;;5047097;28;20086;-61
2022/04/19 07:46:16;;;;;;;5.25;2.53;;;;;;;;;;5036299;28;20029;-61
2022/04/19 07:48:45;;;;;;;7.97;3.03;;;;;;;;;;5036544;28;20029;-61
2022/04/19 07:51:12;;;;;;;5.43;2.50;;;;;;;;;;5044220;28;20033;-61
2022/04/19 07:53:38;;;;;;;4.45;2.10;;;;;;;;;;5040078;28;20129;-61
2022/04/19 07:56:04;;;;;;;8.68;2.70;;;;;;;;;;5037884;28;20541;-61
2022/04/19 07:58:29;;;;;;;5.70;2.58;;;;;;;;;;5035772;28;20064;-61
2022/04/19 08:00:55;;;;;;;4.45;2.08;;;;;;;;;;5044195;28;20811;-61
2022/04/19 08:03:21;;;;;;;7.07;2.92;;;;;;;;;;5039363;28;20064;-61
2022/04/19 08:05:47;;;;;;;5.80;2.83;;;;;;;;;;5042297;28;20058;-62
2022/04/19 08:08:13;;;;;;;5.13;2.10;;;;;;;;;;5040010;28;20025;-61
2022/04/19 08:10:39;;;;;;;6.53;2.50;;;;;;;;;;5042484;28;20075;-61
2022/04/19 08:13:04;;;;;;;9.32;2.55;;;;;;;;;;5042715;28;20041;-61
2022/04/19 08:15:31;;;;;;;6.40;2.80;;;;;;;;;;5043691;28;20166;-61
2022/04/19 08:17:57;;;;;;;6.55;2.35;;;;;;;;;;5044102;28;20047;-61
2022/04/19 08:20:24;;;;;;;9.02;2.88;;;;;;;;;;5036004;28;20021;-62
2022/04/19 08:22:50;;;;;;;5.20;2.60;;;;;;;;;;5046430;28;20164;-61
2022/04/19 08:25:15;;;;;;;5.88;3.15;;;;;;;;;;5038737;28;20059;-61
2022/04/19 08:27:45;;;;;;;6.53;2.63;;;;;;;;;;5039817;28;20030;-61
2022/04/19 08:30:16;;;;;;;6.78;2.50;;;;;;;;;;5037800;28;20086;-61
2022/04/19 08:32:42;;;;;;;5.75;2.95;;;;;;;;;;5035024;28;20863;-61
2022/04/19 08:35:09;;;;;;;10.63;2.80;;;;;;;;;;5034234;28;20112;-61
2022/04/19 08:37:35;;;;;;;7.00;2.85;;;;;;;;;;5042823;28;20033;-61
2022/04/19 08:40:06;;;;;;;8.75;2.92;;;;;;;;;;5033497;28;20037;-61
2022/04/19 08:42:32;;;;;;;5.63;2.78;;;;;;;;;;5043776;28;20034;-62
2022/04/19 08:45:03;;;;;;;6.93;2.90;;;;;;;;;;5039432;28;20056;-61
2022/04/19 08:47:36;;;;;;;8.32;4.32;;;;;;;;;;5033595;28;20025;-61
2022/04/19 08:50:04;;;;;;;7.45;4.40;;;;;;;;;;5037485;28;20036;-62
2022/04/19 08:52:32;;;;;;;12.55;4.40;;;;;;;;;;5034850;28;20079;-61
2022/04/19 08:57:42;;;;;;;14.43;5.93;;;;;;;;;;5039042;28;20025;-62
2022/04/19 09:00:09;;;;;;;8.65;5.85;;;;;;;;;;5035400;28;20025;-61
2022/04/19 09:02:37;;;;;;;10.82;5.55;;;;;;;;;;5039987;28;20482;-61
2022/04/19 09:05:16;;;;;;;12.82;5.50;;;;;;;;;;5036751;28;20056;-61
2022/04/19 09:07:46;;;;;;;12.15;5.43;;;;;;;;;;5036356;28;20021;-61
2022/04/19 09:10:16;;;;;;;20.88;6.28;;;;;;;;;;5034019;28;20067;-61
2022/04/19 09:12:59;;;;;;;24.52;6.10;;;;;;;;;;5038192;28;20040;-61
2022/04/19 09:15:34;;;;;;;12.02;5.47;;;;;;;;;;5037853;28;20044;-61
2022/04/19 09:18:00;;;;;;;19.38;5.78;;;;;;;;;;5036030;28;20033;-62
2022/04/19 09:20:27;;;;;;;10.65;6.90;;;;;;;;;;5038217;28;20154;-62
2022/04/19 09:23:20;;;;;;;19.65;7.55;;;;;;;;;;5035299;28;20030;-61
2022/04/19 09:25:49;;;;;;;13.27;6.93;;;;;;;;;;5034744;28;20044;-61
2022/04/19 09:28:20;;;;;;;19.48;7.85;;;;;;;;;;5034448;28;20029;-62
2022/04/19 09:30:51;;;;;;;13.88;6.20;;;;;;;;;;5035766;28;20017;-61
2022/04/19 09:33:21;;;;;;;24.30;7.50;;;;;;;;;;5037544;28;20053;-61
2022/04/19 09:35:50;;;;;;;19.60;7.32;;;;;;;;;;5037384;28;20381;-61
2022/04/19 09:38:17;;;;;;;17.45;6.30;;;;;;;;;;5035474;28;20477;-61
2022/04/19 09:40:48;;;;;;;15.27;6.40;;;;;;;;;;5033539;28;20024;-62
2022/04/19 09:43:23;;;;;;;29.02;7.65;;;;;;;;;;5034930;28;20099;-62
2022/04/19 09:45:58;;;;;;;30.25;8.27;;;;;;;;;;5038609;28;20063;-61
2022/04/19 09:48:31;;;;;;;13.80;6.00;;;;;;;;;;5038239;28;20490;-62
2022/04/19 09:51:03;;;;;;;12.30;6.00;;;;;;;;;;5035092;28;20636;-61
2022/04/19 09:53:31;;;;;;;;;;;;;;;;;;5036928;28;20486;-61
2022/04/19 09:55:59;;;;;;;15.48;4.90;;;;;;;;;;5035449;28;19920;-61
2022/04/19 09:58:25;;;;;;;11.70;6.68;;;;;;;;;;5034799;28;20037;-61
2022/04/19 10:00:52;;;;;;;21.08;5.90;;;;;;;;;;5034740;28;20025;-61
2022/04/19 10:08:53;;;;;;;9.00;5.20;;;;;;;;;;5035562;28;20473;-61
2022/04/19 10:11:19;;;;;;;9.57;4.63;;;;;;;;;;5036738;28;20029;-62
2022/04/19 10:13:46;;;;;;;10.30;4.15;;;;;;;;;;5034136;28;20037;-61
2022/04/19 10:16:13;;;;;;;7.00;4.72;;;;;;;;;;5034690;28;20159;-62
2022/04/19 10:18:39;;;;;;;21.85;7.40;;;;;;;;;;5038892;28;20429;-61
2022/04/19 10:21:08;;;;;;;10.55;5.03;;;;;;;;;;5034580;28;20053;-62
2022/04/19 10:23:39;;;;;;;13.32;4.88;;;;;;;;;;5035144;28;20643;-61
2022/04/19 10:26:21;;;;;;;13.93;4.50;;;;;;;;;;5035650;28;20029;-61
2022/04/19 10:28:49;;;;;;;13.77;4.28;;;;;;;;;;5034404;28;20029;-55
2022/04/19 10:31:25;;;;;;;20.45;4.30;;;;;;;;;;5033132;28;20032;-62
2022/04/19 10:33:52;;;;;;;7.10;4.05;;;;;;;;;;5035754;28;20052;-61
2022/04/19 10:36:34;;;;;;;11.45;4.40;;;;;;;;;;5035906;28;20099;-61
2022/04/19 10:39:11;;;;;;;7.38;3.47;;;;;;;;;;5039954;28;20026;-61
2022/04/19 10:41:52;;;;;;;8.43;3.83;;;;;;;;;;5033077;28;20037;-61
2022/04/19 10:44:26;;;;;;;14.10;4.15;;;;;;;;;;5034635;28;20025;-62
2022/04/19 10:47:13;;;;;;;12.75;4.88;;;;;;;;;;5041674;28;20029;-61
2022/04/19 10:50:03;;;;;;;9.05;4.13;;;;;;;;;;5032227;28;20043;-62
2022/04/19 10:52:44;;;;;;;7.25;3.35;;;;;;;;;;5033748;28;20112;-61
2022/04/19 10:55:18;;;;;;;12.52;4.25;;;;;;;;;;5035422;28;20049;-62
2022/04/19 11:00:46;;;;;;;5.15;3.17;;;;;;;;;;5035483;28;20030;-62
2022/04/19 11:03:12;;;;;;;13.23;3.72;;;;;;;;;;5034754;28;20548;-61
2022/04/19 11:06:02;;;;;;;6.13;3.08;;;;;;;;;;5033633;28;20028;-61
2022/04/19 11:08:30;;;;;;;5.10;3.35;;;;;;;;;;5035236;28;20039;-61
2022/04/19 11:10:56;;;;;;;5.25;2.90;;;;;;;;;;5031451;28;20397;-62
2022/04/19 11:13:27;;;;;;;5.15;3.40;;;;;;;;;;5038911;28;20025;-61
2022/04/19 11:16:35;;;;;;;6.63;3.15;;;;;;;;;;5040972;28;20026;-61
2022/04/19 11:19:14;;;;;;;8.32;2.80;;;;;;;;;;5039243;28;20048;-62
2022/04/19 11:21:53;;;;;;;3.70;2.85;;;;;;;;;;5038413;28;20568;-61
2022/04/19 11:25:02;;;;;;;7.25;3.38;;;;;;;;;;5044082;28;20043;-61
2022/04/19 11:27:52;;;;;;;7.00;2.92;;;;;;;;;;4976914;28;20428;-60
2022/04/19 11:30:22;;;;;;;5.70;2.65;;;;;;;;;;4978631;28;20030;-62
2022/04/19 11:32:56;;;;;;;6.43;3.22;;;;;;;;;;4976692;28;20555;-60
2022/04/19 11:35:21;;;;;;;3.20;2.42;;;;;;;;;;4977382;28;20031;-61
2022/04/19 11:37:48;;;;;;;4.88;2.75;;;;;;;;;;4979402;28;20034;-62
2022/04/19 11:48:48;;;;;;;6.80;2.63;;;;;;;;;;4985581;28;20039;-61
2022/04/19 11:51:16;;;;;;;2.47;2.22;;;;;;;;;;4983513;28;20070;-62
2022/04/19 11:53:41;;;;;;;5.05;2.50;;;;;;;;;;4979249;28;20494;-62
2022/04/19 11:56:07;;;;;;;8.95;2.17;;;;;;;;;;4972816;28;20057;-58
2022/04/19 11:58:36;;;;;;;4.22;2.28;;;;;;;;;;5018787;28;20502;-61
2022/04/19 12:01:09;;;;;;;6.63;2.83;;;;;;;;;;5043982;28;20025;-62
2022/04/19 12:03:37;;;;;;;6.20;2.35;;;;;;;;;;5043204;28;20056;-61
2022/04/19 12:06:15;;;;;;;4.22;2.38;;;;;;;;;;5037614;28;20025;-61
2022/04/19 12:08:51;;;;;;;4.47;2.30;;;;;;;;;;5040206;28;20556;-61
2022/04/19 12:11:18;;;;;;;2.60;2.20;;;;;;;;;;5037263;28;20531;-62
2022/04/19 12:13:52;;;;;;;2.55;1.77;;;;;;;;;;5038471;28;20056;-61
2022/04/19 12:16:30;;;;;;;10.82;2.70;;;;;;;;;;5047301;28;20029;-62
2022/04/19 12:19:03;;;;;;;13.18;3.13;;;;;;;;;;5034499;28;20037;-61
2022/04/19 12:21:38;;;;;;;8.35;3.60;;;;;;;;;;5038056;28;20033;-61
2022/04/19 12:24:08;;;;;;;5.38;3.20;;;;;;;;;;5039869;28;20033;-61
2022/04/19 12:26:35;;;;;;;19.17;4.53;;;;;;;;;;5036880;28;20040;-61
2022/04/19 12:29:13;;;;;;;11.98;4.10;;;;;;;;;;5036428;28;20029;-62
2022/04/19 12:31:43;;;;;;;11.23;3.90;;;;;;;;;;5040084;28;20033;-62
2022/04/19 12:34:12;;;;;;;12.10;4.38;;;;;;;;;;5040792;28;20029;-61
2022/04/19 12:36:49;;;;;;;14.30;4.53;;;;;;;;;;5038281;28;20123;-62
2022/04/19 12:39:16;;;;;;;14.60;4.40;;;;;;;;;;5038403;28;20029;-61
2022/04/19 12:41:46;;;;;;;12.18;4.05;;;;;;;;;;5040441;28;20060;-62
2022/04/19 12:44:17;;;;;;;9.88;3.90;;;;;;;;;;5038038;28;20033;-62
2022/04/19 12:46:50;;;;;;;13.63;3.63;;;;;;;;;;5036425;28;20034;-61
2022/04/19 12:49:45;;;;;;;8.13;2.58;;;;;;;;;;5040408;28;20048;-62
2022/04/19 12:52:12;;;;;;;12.25;2.83;;;;;;;;;;5030985;28;20048;-61
2022/04/19 12:54:40;;;;;;;5.82;2.78;;;;;;;;;;5037152;28;20123;-62
2022/04/19 12:57:15;;;;;;;8.15;3.88;;;;;;;;;;5051153;28;20418;-62
2022/04/19 12:59:43;;;;;;;7.18;3.50;;;;;;;;;;5040656;28;20489;-62
2022/04/19 13:02:10;;;;;;;8.57;3.55;;;;;;;;;;5035018;28;20061;-61
2022/04/19 13:04:36;;;;;;;9.45;3.75;;;;;;;;;;5032859;28;20100;-62
2022/04/19 13:12:32;;;;;;;5.15;2.25;;;;;;;;;;5040979;28;20466;-61
2022/04/19 13:15:00;;;;;;;12.82;2.78;;;;;;;;;;5036316;28;20079;-62
2022/04/19 13:17:30;;;;;;;6.80;2.20;;;;;;;;;;5039334;28;20025;-62
2022/04/19 13:19:56;;;;;;;2.90;2.00;;;;;;;;;;5034589;28;20041;-62
2022/04/19 13:22:22;;;;;;;11.65;2.58;;;;;;;;;;5035391;28;20128;-60
2022/04/19 13:24:49;;;;;;;9.75;2.13;;;;;;;;;;5036720;28;20017;-61
2022/04/19 13:27:16;;;;;;;13.00;2.50;;;;;;;;;;5034187;28;20037;-61
2022/04/19 13:29:42;;;;;;;4.45;2.30;;;;;;;;;;5036705;28;20102;-62
2022/04/19 13:32:10;;;;;;;5.03;2.10;;;;;;;;;;5035431;28;20032;-61
2022/04/19 13:34:36;;;;;;;6.30;2.25;;;;;;;;;;5034093;28;20382;-61
2022/04/19 13:37:03;;;;;;;11.02;2.25;;;;;;;;;;5036037;28;20032;-63
2022/04/19 13:39:29;;;;;;;6.10;2.55;;;;;;;;;;5038587;28;20108;-61
2022/04/19 13:41:55;;;;;;;5.80;2.47;;;;;;;;;;5039360;28;20040;-62
2022/04/19 13:44:21;;;;;;;4.68;2.45;;;;;;;;;;5036631;28;20037;-62
2022/04/19 13:46:48;;;;;;;11.98;2.00;;;;;;;;;;5034142;28;20056;-61
2022/04/19 13:49:16;;;;;;;10.57;2.22;;;;;;;;;;5039628;28;20029;-61
2022/04/19 13:51:42;;;;;;;8.85;2.05;;;;;;;;;;5039939;28;20152;-61
2022/04/19 13:54:14;;;;;;;4.55;1.80;;;;;;;;;;5037878;28;20101;-60
2022/04/19 13:56:40;;;;;;;;;;;;;;;;;;5039943;28;20029;-61
2022/04/19 13:59:07;;;;;;;3.78;1.65;;;;;;;;;;5035243;28;20007;-61
2022/04/19 14:01:34;;;;;;;11.73;2.10;;;;;;;;;;5031972;28;20033;-62
2022/04/19 14:03:59;;;;;;;2.33;1.60;;;;;;;;;;5037289;28;20143;-62
2022/04/19 14:06:26;;;;;;;2.33;1.58;;;;;;;;;;5035866;28;20490;-61
2022/04/19 14:08:51;;;;;;;6.57;1.92;;;;;;;;;;5040493;28;20025;-61
2022/04/19 14:11:17;;;;;;;3.00;2.17;;;;;;;;;;5042341;28;20037;-62
2022/04/19 14:13:43;;;;;;;5.40;2.00;;;;;;;;;;5042234;28;20074;-61
2022/04/19 14:16:10;;;;;;;5.47;2.25;;;;;;;;;;5041403;28;20037;-61
2022/04/19 14:18:37;;;;;;;3.85;2.00;;;;;;;;;;5040513;28;20033;-61
2022/04/19 14:21:03;;;;;;;8.15;2.25;;;;;;;;;;5038297;28;20067;-62
2022/04/19 14:23:29;;;;;;;6.22;1.83;;;;;;;;;;5037026;28;20052;-61
2022/04/19 14:25:55;;;;;;;3.92;1.92;;;;;;;;;;5033901;28;20037;-61
2022/04/19 14:33:15;;;;;;;5.15;2.00;;;;;;;;;;5038291;28;20037;-62
2022/04/19 14:33:53;;;;;;;3.78;2.30;;;;;;;;;;5038016;28;20167;-61
2022/04/19 14:36:19;;;;;;;4.82;2.45;;;;;;;;;;5035239;28;20029;-62
2022/04/19 14:38:44;;;;;;;4.57;2.22;;;;;;;;;;5039184;28;20390;-61
2022/04/19 14:41:10;;;;;;;5.88;2.17;;;;;;;;;;5038744;28;20044;-62
2022/04/19 14:43:36;;;;;;;6.97;2.95;;;;;;;;;;5032420;28;20048;-61
2022/04/19 14:46:01;;;;;;;5.43;1.83;;;;;;;;;;5033936;28;20044;-62
2022/04/19 14:48:27;;;;;;;3.20;1.70;;;;;;;;;;5042435;28;20563;-62
2022/04/19 14:53:37;;;;;;;2.60;1.85;;;;;;;;;;5044602;28;20045;-62
2022/04/19 14:56:03;;;;;;;2.47;1.77;;;;;;;;;;5040582;28;20489;-62
2022/04/19 14:58:29;;;;;;;5.60;1.90;;;;;;;;;;5038591;28;20123;-62
2022/04/19 15:00:54;;;;;;;2.13;1.60;;;;;;;;;;5040536;28;20037;-62
2022/04/19 15:03:20;;;;;;;3.40;1.63;;;;;;;;;;5037610;28;20129;-61
2022/04/19 15:05:46;;;;;;;2.35;1.38;;;;;;;;;;5037756;28;20024;-62
2022/04/19 15:08:11;;;;;;;1.52;1.40;;;;;;;;;;5036696;28;20041;-61
2022/04/19 15:10:38;;;;;;;2.58;1.50;;;;;;;;;;5037695;28;20032;-62
2022/04/19 15:13:04;;;;;;;2.15;1.20;;;;;;;;;;5039681;28;20490;-62
2022/04/19 15:15:30;;;;;;;2.65;1.48;;;;;;;;;;5038614;28;20040;-60
2022/04/19 15:17:56;;;;;;;1.85;1.48;;;;;;;;;;5069205;28;20034;-62
2022/04/19 15:20:22;;;;;;;1.95;1.35;;;;;;;;;;5040519;28;20454;-62
2022/04/19 15:22:49;;;;;;;3.72;1.35;;;;;;;;;;5041190;28;20052;-59
2022/04/19 15:25:15;;;;;;;4.30;1.85;;;;;;;;;;5035168;28;20030;-62
2022/04/19 15:27:41;;;;;;;2.50;1.48;;;;;;;;;;5039877;28;20557;-62
2022/04/19 15:30:07;;;;;;;9.63;1.83;;;;;;;;;;5041154;28;20035;-62